sensor_id;sensor_type;location;lat;lon;timestamp;temperature;humidity
63931;DHT22;50111;48.114;-2.066;2022-11-15T00:02:18;11.00;99.90
63931;DHT22;50111;48.114;-2.066;2022-11-15T00:04:44;11.10;99.90
63931;DHT22;50111;48.114;-2.066;2022-11-15T00:07:09;11.10;99.90
63931;DHT22;50111;48.114;-2.066;2022-11-15T00:09:35;11.10;99.90
63931;DHT22;50111;48.114;-2.066;2022-11-15T00:12:00;11.10;99.90
63931;DHT22;50111;48.114;-2.066;2022-11-15T00:14:26;11.20;99.90
63931;DHT22;50111;48.114;-2.066;2022-11-15T00:16:51;11.20;99.90
63931;DHT22;50111;48.114;-2.066;2022-11-15T00:19:17;11.20;99.90
63931;DHT22;50111;48.114;-2.066;2022-11-15T00:21:42;11.20;99.90
63931;DHT22;50111;48.114;-2.066;2022-11-15T00:24:08;11.20;99.90
63931;DHT22;50111;48.114;-2.066;2022-11-15T00:26:33;11.30;99.90
63931;DHT22;50111;48.114;-2.066;2022-11-15T00:28:59;11.30;99.90
63931;DHT22;50111;48.114;-2.066;2022-11-15T00:31:24;11.30;99.90
63931;DHT22;50111;48.114;-2.066;2022-11-15T00:33:50;11.30;99.90
63931;DHT22;50111;48.114;-2.066;2022-11-15T00:36:15;11.30;99.90
63931;DHT22;50111;48.114;-2.066;2022-11-15T00:38:41;11.30;99.90
63931;DHT22;50111;48.114;-2.066;2022-11-15T00:41:06;11.30;99.90
63931;DHT22;50111;48.114;-2.066;2022-11-15T00:43:32;11.40;99.90
63931;DHT22;50111;48.114;-2.066;2022-11-15T00:45:59;11.40;99.90
63931;DHT22;50111;48.114;-2.066;2022-11-15T00:48:24;11.40;99.90
63931;DHT22;50111;48.114;-2.066;2022-11-15T00:50:50;11.40;99.90
63931;DHT22;50111;48.114;-2.066;2022-11-15T00:53:15;11.50;99.90
63931;DHT22;50111;48.114;-2.066;2022-11-15T00:55:41;11.50;99.90
63931;DHT22;50111;48.114;-2.066;2022-11-15T00:58:07;11.50;99.90
63931;DHT22;50111;48.114;-2.066;2022-11-15T01:00:32;11.50;99.90
63931;DHT22;50111;48.114;-2.066;2022-11-15T01:02:59;11.50;99.90
63931;DHT22;50111;48.114;-2.066;2022-11-15T01:05:25;11.60;99.90
63931;DHT22;50111;48.114;-2.066;2022-11-15T01:07:54;11.50;99.90
63931;DHT22;50111;48.114;-2.066;2022-11-15T01:10:20;11.50;99.90
63931;DHT22;50111;48.114;-2.066;2022-11-15T01:12:45;11.50;99.90
63931;DHT22;50111;48.114;-2.066;2022-11-15T01:15:11;11.60;99.90
63931;DHT22;50111;48.114;-2.066;2022-11-15T01:17:36;11.60;99.90
63931;DHT22;50111;48.114;-2.066;2022-11-15T01:20:02;11.60;99.90
63931;DHT22;50111;48.114;-2.066;2022-11-15T01:22:28;11.60;99.90
63931;DHT22;50111;48.114;-2.066;2022-11-15T01:24:53;11.60;99.90
63931;DHT22;50111;48.114;-2.066;2022-11-15T01:27:19;11.60;99.90
63931;DHT22;50111;48.114;-2.066;2022-11-15T01:29:44;11.60;99.90
63931;DHT22;50111;48.114;-2.066;2022-11-15T01:32:10;11.60;99.90
63931;DHT22;50111;48.114;-2.066;2022-11-15T01:34:35;11.60;99.90
63931;DHT22;50111;48.114;-2.066;2022-11-15T01:37:01;11.60;99.90
63931;DHT22;50111;48.114;-2.066;2022-11-15T01:39:26;11.60;99.90
63931;DHT22;50111;48.114;-2.066;2022-11-15T01:41:52;11.60;99.90
63931;DHT22;50111;48.114;-2.066;2022-11-15T01:46:55;11.70;99.90
63931;DHT22;50111;48.114;-2.066;2022-11-15T01:49:21;11.70;99.90
63931;DHT22;50111;48.114;-2.066;2022-11-15T01:51:47;11.70;99.90
63931;DHT22;50111;48.114;-2.066;2022-11-15T01:54:14;11.70;99.90
63931;DHT22;50111;48.114;-2.066;2022-11-15T01:56:43;11.80;99.90
63931;DHT22;50111;48.114;-2.066;2022-11-15T01:59:09;11.80;99.90
63931;DHT22;50111;48.114;-2.066;2022-11-15T02:01:35;11.80;99.90
63931;DHT22;50111;48.114;-2.066;2022-11-15T02:04:04;11.80;99.90
63931;DHT22;50111;48.114;-2.066;2022-11-15T02:06:32;11.80;99.90
63931;DHT22;50111;48.114;-2.066;2022-11-15T02:08:57;11.90;99.90
63931;DHT22;50111;48.114;-2.066;2022-11-15T02:11:24;11.80;99.90
63931;DHT22;50111;48.114;-2.066;2022-11-15T02:13:49;11.90;99.90
63931;DHT22;50111;48.114;-2.066;2022-11-15T02:21:56;11.90;99.90
63931;DHT22;50111;48.114;-2.066;2022-11-15T02:32:05;12.00;99.90
63931;DHT22;50111;48.114;-2.066;2022-11-15T02:39:50;12.00;99.90
63931;DHT22;50111;48.114;-2.066;2022-11-15T02:45:07;12.00;99.90
63931;DHT22;50111;48.114;-2.066;2022-11-15T02:47:37;12.00;99.90
63931;DHT22;50111;48.114;-2.066;2022-11-15T02:50:07;12.00;99.90
63931;DHT22;50111;48.114;-2.066;2022-11-15T02:52:33;12.00;99.90
63931;DHT22;50111;48.114;-2.066;2022-11-15T02:55:00;12.00;99.90
63931;DHT22;50111;48.114;-2.066;2022-11-15T02:57:30;12.00;99.90
63931;DHT22;50111;48.114;-2.066;2022-11-15T03:00:08;12.00;99.90
63931;DHT22;50111;48.114;-2.066;2022-11-15T03:05:04;12.00;99.90
63931;DHT22;50111;48.114;-2.066;2022-11-15T03:07:40;12.00;99.90
63931;DHT22;50111;48.114;-2.066;2022-11-15T03:10:16;12.00;99.90
63931;DHT22;50111;48.114;-2.066;2022-11-15T03:12:56;12.00;99.90
63931;DHT22;50111;48.114;-2.066;2022-11-15T03:15:29;12.00;99.90
63931;DHT22;50111;48.114;-2.066;2022-11-15T03:21:01;12.00;99.90
63931;DHT22;50111;48.114;-2.066;2022-11-15T03:23:28;11.90;99.90
63931;DHT22;50111;48.114;-2.066;2022-11-15T03:25:55;11.90;99.90
63931;DHT22;50111;48.114;-2.066;2022-11-15T03:28:29;11.90;99.90
63931;DHT22;50111;48.114;-2.066;2022-11-15T03:30:57;11.90;99.90
63931;DHT22;50111;48.114;-2.066;2022-11-15T03:33:24;11.90;99.90
63931;DHT22;50111;48.114;-2.066;2022-11-15T03:35:50;11.90;99.90
63931;DHT22;50111;48.114;-2.066;2022-11-15T03:38:24;11.90;99.90
63931;DHT22;50111;48.114;-2.066;2022-11-15T03:41:00;11.90;99.90
63931;DHT22;50111;48.114;-2.066;2022-11-15T03:46:12;11.90;99.90
63931;DHT22;50111;48.114;-2.066;2022-11-15T03:48:42;11.90;99.90
63931;DHT22;50111;48.114;-2.066;2022-11-15T03:51:08;11.90;99.90
63931;DHT22;50111;48.114;-2.066;2022-11-15T03:53:34;11.90;99.90
63931;DHT22;50111;48.114;-2.066;2022-11-15T03:56:00;11.90;99.90
63931;DHT22;50111;48.114;-2.066;2022-11-15T03:58:25;12.00;99.90
63931;DHT22;50111;48.114;-2.066;2022-11-15T04:00:51;12.00;99.90
63931;DHT22;50111;48.114;-2.066;2022-11-15T04:03:16;12.00;99.90
63931;DHT22;50111;48.114;-2.066;2022-11-15T04:05:42;12.00;99.90
63931;DHT22;50111;48.114;-2.066;2022-11-15T04:08:07;12.00;99.90
63931;DHT22;50111;48.114;-2.066;2022-11-15T04:10:33;12.00;99.90
63931;DHT22;50111;48.114;-2.066;2022-11-15T04:12:58;12.00;99.90
63931;DHT22;50111;48.114;-2.066;2022-11-15T04:15:24;12.10;99.90
63931;DHT22;50111;48.114;-2.066;2022-11-15T04:17:51;12.00;99.90
63931;DHT22;50111;48.114;-2.066;2022-11-15T04:20:18;12.10;99.90
63931;DHT22;50111;48.114;-2.066;2022-11-15T04:23:03;12.10;99.90
63931;DHT22;50111;48.114;-2.066;2022-11-15T04:25:49;12.10;99.90
63931;DHT22;50111;48.114;-2.066;2022-11-15T04:28:16;12.10;99.90
63931;DHT22;50111;48.114;-2.066;2022-11-15T04:30:42;12.10;99.90
63931;DHT22;50111;48.114;-2.066;2022-11-15T04:33:07;12.10;99.90
63931;DHT22;50111;48.114;-2.066;2022-11-15T04:35:33;12.10;99.90
63931;DHT22;50111;48.114;-2.066;2022-11-15T04:37:58;12.10;99.90
63931;DHT22;50111;48.114;-2.066;2022-11-15T04:40:24;12.10;99.90
63931;DHT22;50111;48.114;-2.066;2022-11-15T04:42:50;12.10;99.90
63931;DHT22;50111;48.114;-2.066;2022-11-15T04:45:15;12.10;99.90
63931;DHT22;50111;48.114;-2.066;2022-11-15T04:47:42;12.10;99.90
63931;DHT22;50111;48.114;-2.066;2022-11-15T04:50:08;12.10;99.90
63931;DHT22;50111;48.114;-2.066;2022-11-15T04:52:33;12.10;99.90
63931;DHT22;50111;48.114;-2.066;2022-11-15T04:54:59;12.10;99.90
63931;DHT22;50111;48.114;-2.066;2022-11-15T04:57:24;12.10;99.90
63931;DHT22;50111;48.114;-2.066;2022-11-15T04:59:50;12.10;99.90
63931;DHT22;50111;48.114;-2.066;2022-11-15T05:02:15;12.10;99.90
63931;DHT22;50111;48.114;-2.066;2022-11-15T05:04:41;12.10;99.90
63931;DHT22;50111;48.114;-2.066;2022-11-15T05:07:06;12.00;99.90
63931;DHT22;50111;48.114;-2.066;2022-11-15T05:09:32;12.00;99.90
63931;DHT22;50111;48.114;-2.066;2022-11-15T05:11:57;12.00;99.90
63931;DHT22;50111;48.114;-2.066;2022-11-15T05:14:23;12.00;99.90
63931;DHT22;50111;48.114;-2.066;2022-11-15T05:16:48;12.00;99.90
63931;DHT22;50111;48.114;-2.066;2022-11-15T05:19:14;12.00;99.90
63931;DHT22;50111;48.114;-2.066;2022-11-15T05:21:39;12.10;99.90
63931;DHT22;50111;48.114;-2.066;2022-11-15T05:24:05;12.10;99.90
63931;DHT22;50111;48.114;-2.066;2022-11-15T05:26:31;12.10;99.90
63931;DHT22;50111;48.114;-2.066;2022-11-15T05:28:57;12.10;99.90
63931;DHT22;50111;48.114;-2.066;2022-11-15T05:31:23;12.10;99.90
63931;DHT22;50111;48.114;-2.066;2022-11-15T05:33:49;12.10;99.90
63931;DHT22;50111;48.114;-2.066;2022-11-15T05:36:34;12.10;99.90
63931;DHT22;50111;48.114;-2.066;2022-11-15T05:39:01;12.10;99.90
63931;DHT22;50111;48.114;-2.066;2022-11-15T05:41:29;12.10;99.90
63931;DHT22;50111;48.114;-2.066;2022-11-15T05:43:55;12.10;99.90
63931;DHT22;50111;48.114;-2.066;2022-11-15T05:46:21;12.10;99.90
63931;DHT22;50111;48.114;-2.066;2022-11-15T05:48:47;12.10;99.90
63931;DHT22;50111;48.114;-2.066;2022-11-15T05:51:14;12.10;99.90
63931;DHT22;50111;48.114;-2.066;2022-11-15T05:53:41;12.10;99.90
63931;DHT22;50111;48.114;-2.066;2022-11-15T05:56:07;12.10;99.90
63931;DHT22;50111;48.114;-2.066;2022-11-15T05:58:34;12.10;99.90
63931;DHT22;50111;48.114;-2.066;2022-11-15T06:00:59;12.10;99.90
63931;DHT22;50111;48.114;-2.066;2022-11-15T06:03:25;12.10;99.90
63931;DHT22;50111;48.114;-2.066;2022-11-15T06:05:51;12.10;99.90
63931;DHT22;50111;48.114;-2.066;2022-11-15T06:08:16;12.00;99.90
63931;DHT22;50111;48.114;-2.066;2022-11-15T06:10:42;12.00;99.90
63931;DHT22;50111;48.114;-2.066;2022-11-15T06:13:07;12.00;99.90
63931;DHT22;50111;48.114;-2.066;2022-11-15T06:15:33;12.00;99.90
63931;DHT22;50111;48.114;-2.066;2022-11-15T06:18:01;12.00;99.90
63931;DHT22;50111;48.114;-2.066;2022-11-15T06:20:28;12.00;99.90
63931;DHT22;50111;48.114;-2.066;2022-11-15T06:23:00;12.00;99.90
63931;DHT22;50111;48.114;-2.066;2022-11-15T06:25:26;12.00;99.90
63931;DHT22;50111;48.114;-2.066;2022-11-15T06:27:52;12.00;99.90
63931;DHT22;50111;48.114;-2.066;2022-11-15T06:30:18;12.00;99.90
63931;DHT22;50111;48.114;-2.066;2022-11-15T06:32:44;12.00;99.90
63931;DHT22;50111;48.114;-2.066;2022-11-15T06:35:09;12.00;99.90
63931;DHT22;50111;48.114;-2.066;2022-11-15T06:37:35;12.00;99.90
63931;DHT22;50111;48.114;-2.066;2022-11-15T06:40:00;12.00;99.90
63931;DHT22;50111;48.114;-2.066;2022-11-15T06:42:25;12.00;99.90
63931;DHT22;50111;48.114;-2.066;2022-11-15T06:44:51;12.00;99.90
63931;DHT22;50111;48.114;-2.066;2022-11-15T06:47:16;12.10;99.90
63931;DHT22;50111;48.114;-2.066;2022-11-15T06:49:42;12.00;99.90
63931;DHT22;50111;48.114;-2.066;2022-11-15T06:52:07;12.10;99.90
63931;DHT22;50111;48.114;-2.066;2022-11-15T06:54:33;12.10;99.90
63931;DHT22;50111;48.114;-2.066;2022-11-15T06:56:58;12.10;99.90
63931;DHT22;50111;48.114;-2.066;2022-11-15T06:59:24;12.10;99.90
63931;DHT22;50111;48.114;-2.066;2022-11-15T07:01:49;12.10;99.90
63931;DHT22;50111;48.114;-2.066;2022-11-15T07:04:15;12.20;99.90
63931;DHT22;50111;48.114;-2.066;2022-11-15T07:06:40;12.10;99.90
63931;DHT22;50111;48.114;-2.066;2022-11-15T07:09:06;12.20;99.90
63931;DHT22;50111;48.114;-2.066;2022-11-15T07:11:32;12.20;99.90
63931;DHT22;50111;48.114;-2.066;2022-11-15T07:13:59;12.20;99.90
63931;DHT22;50111;48.114;-2.066;2022-11-15T07:16:24;12.20;99.90
63931;DHT22;50111;48.114;-2.066;2022-11-15T07:18:50;12.20;99.90
63931;DHT22;50111;48.114;-2.066;2022-11-15T07:21:15;12.20;99.90
63931;DHT22;50111;48.114;-2.066;2022-11-15T07:23:41;12.30;99.90
63931;DHT22;50111;48.114;-2.066;2022-11-15T07:26:07;12.30;99.90
63931;DHT22;50111;48.114;-2.066;2022-11-15T07:28:33;12.30;99.90
63931;DHT22;50111;48.114;-2.066;2022-11-15T07:31:01;12.30;99.90
63931;DHT22;50111;48.114;-2.066;2022-11-15T07:33:27;12.30;99.90
63931;DHT22;50111;48.114;-2.066;2022-11-15T07:35:52;12.40;99.90
63931;DHT22;50111;48.114;-2.066;2022-11-15T07:38:18;12.40;99.90
63931;DHT22;50111;48.114;-2.066;2022-11-15T07:40:44;12.40;99.90
63931;DHT22;50111;48.114;-2.066;2022-11-15T07:43:10;12.40;99.90
63931;DHT22;50111;48.114;-2.066;2022-11-15T07:45:39;12.40;99.90
63931;DHT22;50111;48.114;-2.066;2022-11-15T07:48:05;12.50;99.90
63931;DHT22;50111;48.114;-2.066;2022-11-15T07:50:31;12.50;99.90
63931;DHT22;50111;48.114;-2.066;2022-11-15T07:52:57;12.50;99.90
63931;DHT22;50111;48.114;-2.066;2022-11-15T07:55:23;12.50;99.90
63931;DHT22;50111;48.114;-2.066;2022-11-15T07:57:49;12.50;99.90
63931;DHT22;50111;48.114;-2.066;2022-11-15T08:00:15;12.60;99.90
63931;DHT22;50111;48.114;-2.066;2022-11-15T08:02:41;12.60;99.90
63931;DHT22;50111;48.114;-2.066;2022-11-15T08:05:07;12.60;99.90
63931;DHT22;50111;48.114;-2.066;2022-11-15T08:07:33;12.60;99.90
63931;DHT22;50111;48.114;-2.066;2022-11-15T08:09:59;12.60;99.90
63931;DHT22;50111;48.114;-2.066;2022-11-15T08:12:27;12.60;99.90
63931;DHT22;50111;48.114;-2.066;2022-11-15T08:14:54;12.60;99.90
63931;DHT22;50111;48.114;-2.066;2022-11-15T08:17:20;12.70;99.90
63931;DHT22;50111;48.114;-2.066;2022-11-15T08:19:45;12.70;99.90
63931;DHT22;50111;48.114;-2.066;2022-11-15T08:22:11;12.70;99.90
63931;DHT22;50111;48.114;-2.066;2022-11-15T08:24:36;12.70;99.90
63931;DHT22;50111;48.114;-2.066;2022-11-15T08:27:02;12.70;99.90
63931;DHT22;50111;48.114;-2.066;2022-11-15T08:29:27;12.70;99.90
63931;DHT22;50111;48.114;-2.066;2022-11-15T08:31:54;12.80;99.90
63931;DHT22;50111;48.114;-2.066;2022-11-15T08:34:20;12.80;99.90
63931;DHT22;50111;48.114;-2.066;2022-11-15T08:36:45;12.80;99.90
63931;DHT22;50111;48.114;-2.066;2022-11-15T08:39:11;12.80;99.90
63931;DHT22;50111;48.114;-2.066;2022-11-15T08:41:37;12.80;99.90
63931;DHT22;50111;48.114;-2.066;2022-11-15T08:44:03;12.80;99.90
63931;DHT22;50111;48.114;-2.066;2022-11-15T08:46:28;12.80;99.90
63931;DHT22;50111;48.114;-2.066;2022-11-15T08:48:54;12.90;99.90
63931;DHT22;50111;48.114;-2.066;2022-11-15T08:51:19;12.80;99.90
63931;DHT22;50111;48.114;-2.066;2022-11-15T08:53:45;12.90;99.90
63931;DHT22;50111;48.114;-2.066;2022-11-15T08:56:11;12.90;99.90
63931;DHT22;50111;48.114;-2.066;2022-11-15T08:58:37;12.90;99.90
63931;DHT22;50111;48.114;-2.066;2022-11-15T09:01:03;12.90;99.90
63931;DHT22;50111;48.114;-2.066;2022-11-15T09:03:29;12.90;99.90
63931;DHT22;50111;48.114;-2.066;2022-11-15T09:05:58;12.90;99.90
63931;DHT22;50111;48.114;-2.066;2022-11-15T09:08:25;13.00;99.90
63931;DHT22;50111;48.114;-2.066;2022-11-15T09:10:51;13.00;99.90
63931;DHT22;50111;48.114;-2.066;2022-11-15T09:13:16;13.00;99.90
63931;DHT22;50111;48.114;-2.066;2022-11-15T09:15:42;13.00;99.90
63931;DHT22;50111;48.114;-2.066;2022-11-15T09:18:07;13.00;99.90
63931;DHT22;50111;48.114;-2.066;2022-11-15T09:20:33;13.00;99.90
63931;DHT22;50111;48.114;-2.066;2022-11-15T09:23:01;13.10;99.90
63931;DHT22;50111;48.114;-2.066;2022-11-15T09:25:28;13.10;99.90
63931;DHT22;50111;48.114;-2.066;2022-11-15T09:27:53;13.10;99.90
63931;DHT22;50111;48.114;-2.066;2022-11-15T09:30:19;13.10;99.90
63931;DHT22;50111;48.114;-2.066;2022-11-15T09:32:44;13.10;99.90
63931;DHT22;50111;48.114;-2.066;2022-11-15T09:35:10;13.10;99.90
63931;DHT22;50111;48.114;-2.066;2022-11-15T09:37:35;13.10;99.90
63931;DHT22;50111;48.114;-2.066;2022-11-15T09:40:01;13.10;99.90
63931;DHT22;50111;48.114;-2.066;2022-11-15T09:42:30;13.10;99.90
63931;DHT22;50111;48.114;-2.066;2022-11-15T09:45:10;13.20;99.90
63931;DHT22;50111;48.114;-2.066;2022-11-15T09:47:42;13.20;99.90
63931;DHT22;50111;48.114;-2.066;2022-11-15T09:50:12;13.30;99.90
63931;DHT22;50111;48.114;-2.066;2022-11-15T09:52:39;13.30;99.90
63931;DHT22;50111;48.114;-2.066;2022-11-15T09:55:08;13.30;99.90
63931;DHT22;50111;48.114;-2.066;2022-11-15T09:57:38;13.40;99.90
63931;DHT22;50111;48.114;-2.066;2022-11-15T10:05:06;13.40;99.90
63931;DHT22;50111;48.114;-2.066;2022-11-15T10:10:24;13.60;99.90
63931;DHT22;50111;48.114;-2.066;2022-11-15T10:12:50;14.00;99.90
63931;DHT22;50111;48.114;-2.066;2022-11-15T10:15:17;14.20;99.90
63931;DHT22;50111;48.114;-2.066;2022-11-15T10:18:05;14.40;99.90
63931;DHT22;50111;48.114;-2.066;2022-11-15T10:20:35;14.50;99.90
63931;DHT22;50111;48.114;-2.066;2022-11-15T10:23:10;14.60;99.90
63931;DHT22;50111;48.114;-2.066;2022-11-15T10:25:36;14.70;99.90
63931;DHT22;50111;48.114;-2.066;2022-11-15T10:30:30;14.60;99.90
63931;DHT22;50111;48.114;-2.066;2022-11-15T10:33:08;14.40;99.90
63931;DHT22;50111;48.114;-2.066;2022-11-15T10:35:38;14.40;99.90
63931;DHT22;50111;48.114;-2.066;2022-11-15T10:38:07;14.40;99.90
63931;DHT22;50111;48.114;-2.066;2022-11-15T10:40:33;14.40;99.90
63931;DHT22;50111;48.114;-2.066;2022-11-15T10:43:18;14.40;99.90
63931;DHT22;50111;48.114;-2.066;2022-11-15T10:45:44;14.40;99.90
63931;DHT22;50111;48.114;-2.066;2022-11-15T10:50:39;14.60;99.90
63931;DHT22;50111;48.114;-2.066;2022-11-15T10:53:12;14.70;99.90
63931;DHT22;50111;48.114;-2.066;2022-11-15T10:55:40;14.80;99.90
63931;DHT22;50111;48.114;-2.066;2022-11-15T10:58:20;14.70;99.90
63931;DHT22;50111;48.114;-2.066;2022-11-15T11:00:46;14.80;99.90
63931;DHT22;50111;48.114;-2.066;2022-11-15T11:03:33;14.70;99.90
63931;DHT22;50111;48.114;-2.066;2022-11-15T11:06:13;14.80;99.90
63931;DHT22;50111;48.114;-2.066;2022-11-15T11:08:39;15.10;99.90
63931;DHT22;50111;48.114;-2.066;2022-11-15T11:11:05;15.30;99.90
63931;DHT22;50111;48.114;-2.066;2022-11-15T11:16:14;15.30;99.90
63931;DHT22;50111;48.114;-2.066;2022-11-15T11:18:48;15.10;99.90
63931;DHT22;50111;48.114;-2.066;2022-11-15T11:21:17;15.00;99.90
63931;DHT22;50111;48.114;-2.066;2022-11-15T11:33:50;14.60;99.90
63931;DHT22;50111;48.114;-2.066;2022-11-15T11:36:23;14.40;99.90
63931;DHT22;50111;48.114;-2.066;2022-11-15T11:38:52;14.30;99.90
63931;DHT22;50111;48.114;-2.066;2022-11-15T11:49:02;14.10;99.90
63931;DHT22;50111;48.114;-2.066;2022-11-15T11:51:38;14.20;99.90
63931;DHT22;50111;48.114;-2.066;2022-11-15T11:56:37;14.30;99.90
63931;DHT22;50111;48.114;-2.066;2022-11-15T11:59:14;14.40;99.90
63931;DHT22;50111;48.114;-2.066;2022-11-15T12:01:41;14.40;99.90
63931;DHT22;50111;48.114;-2.066;2022-11-15T12:11:55;14.60;99.90
63931;DHT22;50111;48.114;-2.066;2022-11-15T12:16:55;14.70;99.90
63931;DHT22;50111;48.114;-2.066;2022-11-15T12:19:22;14.80;99.90
63931;DHT22;50111;48.114;-2.066;2022-11-15T12:24:48;14.90;99.90
63931;DHT22;50111;48.114;-2.066;2022-11-15T12:27:21;15.00;99.90
63931;DHT22;50111;48.114;-2.066;2022-11-15T12:29:51;15.10;99.90
63931;DHT22;50111;48.114;-2.066;2022-11-15T12:32:24;15.10;99.90
63931;DHT22;50111;48.114;-2.066;2022-11-15T12:34:50;15.30;99.90
63931;DHT22;50111;48.114;-2.066;2022-11-15T12:40:15;15.40;99.90
63931;DHT22;50111;48.114;-2.066;2022-11-15T12:47:53;15.60;99.90
63931;DHT22;50111;48.114;-2.066;2022-11-15T12:50:52;15.60;99.90
63931;DHT22;50111;48.114;-2.066;2022-11-15T12:56:08;15.60;99.90
63931;DHT22;50111;48.114;-2.066;2022-11-15T13:01:08;15.80;99.90
63931;DHT22;50111;48.114;-2.066;2022-11-15T13:03:34;15.80;99.90
63931;DHT22;50111;48.114;-2.066;2022-11-15T13:06:00;15.70;99.90
63931;DHT22;50111;48.114;-2.066;2022-11-15T13:08:43;15.50;99.90
63931;DHT22;50111;48.114;-2.066;2022-11-15T13:13:56;15.30;99.90
63931;DHT22;50111;48.114;-2.066;2022-11-15T13:16:22;15.10;99.90
63931;DHT22;50111;48.114;-2.066;2022-11-15T13:18:57;15.10;99.90
63931;DHT22;50111;48.114;-2.066;2022-11-15T13:21:23;15.10;99.90
63931;DHT22;50111;48.114;-2.066;2022-11-15T13:24:12;15.00;99.90
63931;DHT22;50111;48.114;-2.066;2022-11-15T13:26:38;15.10;99.90
63931;DHT22;50111;48.114;-2.066;2022-11-15T13:29:12;15.30;99.90
63931;DHT22;50111;48.114;-2.066;2022-11-15T13:31:42;15.40;99.90
63931;DHT22;50111;48.114;-2.066;2022-11-15T13:36:43;15.30;99.90
63931;DHT22;50111;48.114;-2.066;2022-11-15T13:39:25;15.20;99.90
63931;DHT22;50111;48.114;-2.066;2022-11-15T13:41:51;15.20;99.90
63931;DHT22;50111;48.114;-2.066;2022-11-15T13:44:27;15.10;99.90
63931;DHT22;50111;48.114;-2.066;2022-11-15T13:49:28;15.20;99.90
63931;DHT22;50111;48.114;-2.066;2022-11-15T13:51:54;15.10;99.90
63931;DHT22;50111;48.114;-2.066;2022-11-15T13:56:56;15.10;99.90
63931;DHT22;50111;48.114;-2.066;2022-11-15T14:01:48;15.10;99.90
63931;DHT22;50111;48.114;-2.066;2022-11-15T14:04:17;15.10;99.90
63931;DHT22;50111;48.114;-2.066;2022-11-15T14:06:44;15.10;99.90
63931;DHT22;50111;48.114;-2.066;2022-11-15T14:11:36;15.00;99.90
63931;DHT22;50111;48.114;-2.066;2022-11-15T14:14:11;15.10;99.90
63931;DHT22;50111;48.114;-2.066;2022-11-15T14:16:38;15.00;99.90
63931;DHT22;50111;48.114;-2.066;2022-11-15T14:19:05;15.00;99.90
63931;DHT22;50111;48.114;-2.066;2022-11-15T14:21:31;14.80;99.90
63931;DHT22;50111;48.114;-2.066;2022-11-15T14:26:41;14.40;99.90
63931;DHT22;50111;48.114;-2.066;2022-11-15T14:29:26;14.30;99.90
63931;DHT22;50111;48.114;-2.066;2022-11-15T14:31:52;14.30;99.90
63931;DHT22;50111;48.114;-2.066;2022-11-15T14:34:18;14.40;99.90
63931;DHT22;50111;48.114;-2.066;2022-11-15T14:36:43;14.50;99.90
63931;DHT22;50111;48.114;-2.066;2022-11-15T14:39:09;14.60;99.90
63931;DHT22;50111;48.114;-2.066;2022-11-15T14:41:35;14.60;99.90
63931;DHT22;50111;48.114;-2.066;2022-11-15T14:44:03;14.60;99.90
63931;DHT22;50111;48.114;-2.066;2022-11-15T14:46:29;14.50;99.90
63931;DHT22;50111;48.114;-2.066;2022-11-15T14:48:54;14.40;99.90
63931;DHT22;50111;48.114;-2.066;2022-11-15T14:51:20;14.40;99.90
63931;DHT22;50111;48.114;-2.066;2022-11-15T14:53:46;14.30;99.90
63931;DHT22;50111;48.114;-2.066;2022-11-15T14:56:12;14.20;99.90
63931;DHT22;50111;48.114;-2.066;2022-11-15T14:58:37;14.20;99.90
63931;DHT22;50111;48.114;-2.066;2022-11-15T15:01:20;14.20;99.90
63931;DHT22;50111;48.114;-2.066;2022-11-15T15:03:46;14.10;99.90
63931;DHT22;50111;48.114;-2.066;2022-11-15T15:06:12;14.10;99.90
63931;DHT22;50111;48.114;-2.066;2022-11-15T15:08:39;14.00;99.90
63931;DHT22;50111;48.114;-2.066;2022-11-15T15:11:10;14.00;99.90
63931;DHT22;50111;48.114;-2.066;2022-11-15T15:13:36;13.90;99.90
63931;DHT22;50111;48.114;-2.066;2022-11-15T15:16:01;13.90;99.90
63931;DHT22;50111;48.114;-2.066;2022-11-15T15:18:27;13.90;99.90
63931;DHT22;50111;48.114;-2.066;2022-11-15T15:20:56;13.90;99.90
63931;DHT22;50111;48.114;-2.066;2022-11-15T15:23:25;13.80;99.90
63931;DHT22;50111;48.114;-2.066;2022-11-15T15:25:54;13.80;99.90
63931;DHT22;50111;48.114;-2.066;2022-11-15T15:28:19;13.70;99.90
63931;DHT22;50111;48.114;-2.066;2022-11-15T15:30:45;13.70;99.90
63931;DHT22;50111;48.114;-2.066;2022-11-15T15:33:10;13.60;99.90
63931;DHT22;50111;48.114;-2.066;2022-11-15T15:35:36;13.60;99.90
63931;DHT22;50111;48.114;-2.066;2022-11-15T15:38:02;13.50;99.90
63931;DHT22;50111;48.114;-2.066;2022-11-15T15:40:28;13.50;99.90
63931;DHT22;50111;48.114;-2.066;2022-11-15T15:42:54;13.40;99.90
63931;DHT22;50111;48.114;-2.066;2022-11-15T15:45:19;13.40;99.90
63931;DHT22;50111;48.114;-2.066;2022-11-15T15:47:45;13.30;99.90
63931;DHT22;50111;48.114;-2.066;2022-11-15T15:50:22;13.30;99.90
63931;DHT22;50111;48.114;-2.066;2022-11-15T15:52:49;13.20;99.90
63931;DHT22;50111;48.114;-2.066;2022-11-15T15:55:15;13.10;99.90
63931;DHT22;50111;48.114;-2.066;2022-11-15T15:57:40;13.10;99.90
63931;DHT22;50111;48.114;-2.066;2022-11-15T16:00:06;13.10;99.90
63931;DHT22;50111;48.114;-2.066;2022-11-15T16:02:31;13.00;99.90
63931;DHT22;50111;48.114;-2.066;2022-11-15T16:04:57;13.00;99.90
63931;DHT22;50111;48.114;-2.066;2022-11-15T16:07:22;12.90;99.90
63931;DHT22;50111;48.114;-2.066;2022-11-15T16:09:53;12.90;99.90
63931;DHT22;50111;48.114;-2.066;2022-11-15T16:12:25;12.90;99.90
63931;DHT22;50111;48.114;-2.066;2022-11-15T16:14:50;12.90;99.90
63931;DHT22;50111;48.114;-2.066;2022-11-15T16:17:20;12.80;99.90
63931;DHT22;50111;48.114;-2.066;2022-11-15T16:19:46;12.80;99.90
63931;DHT22;50111;48.114;-2.066;2022-11-15T16:22:12;12.70;99.90
63931;DHT22;50111;48.114;-2.066;2022-11-15T16:24:37;12.60;99.90
63931;DHT22;50111;48.114;-2.066;2022-11-15T16:27:03;12.60;99.90
63931;DHT22;50111;48.114;-2.066;2022-11-15T16:29:29;12.60;99.90
63931;DHT22;50111;48.114;-2.066;2022-11-15T16:31:55;12.60;99.90
63931;DHT22;50111;48.114;-2.066;2022-11-15T16:34:21;12.60;99.90
63931;DHT22;50111;48.114;-2.066;2022-11-15T16:36:46;12.50;99.90
63931;DHT22;50111;48.114;-2.066;2022-11-15T16:39:12;12.50;99.90
63931;DHT22;50111;48.114;-2.066;2022-11-15T16:41:43;12.50;99.90
63931;DHT22;50111;48.114;-2.066;2022-11-15T16:44:12;12.50;99.90
63931;DHT22;50111;48.114;-2.066;2022-11-15T16:46:38;12.50;99.90
63931;DHT22;50111;48.114;-2.066;2022-11-15T16:49:05;12.40;99.90
63931;DHT22;50111;48.114;-2.066;2022-11-15T16:51:34;12.40;99.90
63931;DHT22;50111;48.114;-2.066;2022-11-15T16:53:59;12.40;99.90
63931;DHT22;50111;48.114;-2.066;2022-11-15T16:56:26;12.30;99.90
63931;DHT22;50111;48.114;-2.066;2022-11-15T16:58:52;12.30;99.90
63931;DHT22;50111;48.114;-2.066;2022-11-15T17:01:21;12.20;99.90
63931;DHT22;50111;48.114;-2.066;2022-11-15T17:03:47;12.20;99.90
63931;DHT22;50111;48.114;-2.066;2022-11-15T17:06:13;12.20;99.90
63931;DHT22;50111;48.114;-2.066;2022-11-15T17:08:39;12.10;99.90
63931;DHT22;50111;48.114;-2.066;2022-11-15T17:11:05;12.20;99.90